Time;durP1;ratioP1;P1;durP2;ratioP2;P2;SDS_P1;SDS_P2;PMS_P1;PMS_P2;Temp;Humidity;BMP_temperature;BMP_pressure;BME280_temperature;BME280_humidity;BME280_pressure;Samples;Min_cycle;Max_cycle;Signal;HPM_P1;HPM_P2
2023/04/18 00:01:50;;;;;;;2.80;2.60;;;;;12.20;96701.00;;;;5118923;27;20720;-71
2023/04/18 00:04:40;;;;;;;3.40;3.10;;;;;12.10;96699.00;;;;5123962;27;20194;-69
2023/04/18 00:07:29;;;;;;;4.90;2.93;;;;;12.10;96705.00;;;;5127377;28;20198;-70
2023/04/18 00:10:18;;;;;;;3.60;2.97;;;;;12.20;96702.00;;;;5123061;28;20231;-70
2023/04/18 00:13:07;;;;;;;4.27;3.27;;;;;12.00;96698.00;;;;5134614;27;20262;-70
2023/04/18 00:15:56;;;;;;;2.93;2.73;;;;;12.20;96696.00;;;;5123495;27;20252;-72
2023/04/18 00:18:47;;;;;;;6.47;4.20;;;;;12.00;96686.00;;;;5124964;27;20270;-65
2023/04/18 00:21:38;;;;;;;4.63;3.10;;;;;12.10;96693.00;;;;5119701;28;20619;-70
2023/04/18 00:24:27;;;;;;;3.40;3.03;;;;;12.30;96696.00;;;;5131350;27;20209;-69
2023/04/18 00:27:16;;;;;;;3.47;3.00;;;;;11.80;96689.00;;;;5125042;27;20334;-67
2023/04/18 00:30:05;;;;;;;3.10;2.80;;;;;12.20;96692.00;;;;5120322;28;20592;-68
2023/04/18 00:32:54;;;;;;;3.90;2.87;;;;;12.10;96699.00;;;;5130898;27;20217;-67
2023/04/18 00:35:43;;;;;;;3.97;3.50;;;;;11.80;96696.00;;;;5125959;27;20211;-68
2023/04/18 00:38:33;;;;;;;4.40;3.20;;;;;11.90;96696.00;;;;5135094;27;20213;-68
2023/04/18 00:41:24;;;;;;;6.27;3.40;;;;;11.80;96693.00;;;;5125373;28;20235;-72
2023/04/18 00:44:13;;;;;;;5.17;3.27;;;;;12.20;96692.00;;;;5127462;27;20198;-71
2023/04/18 00:47:02;;;;;;;3.60;3.23;;;;;12.20;96689.00;;;;5124086;28;20205;-72
2023/04/18 00:49:51;;;;;;;4.83;3.10;;;;;12.20;96686.00;;;;5122258;28;20202;-71
2023/04/18 00:52:40;;;;;;;4.73;3.13;;;;;12.00;96678.00;;;;5126733;27;20641;-68
2023/04/18 00:55:30;;;;;;;9.33;2.90;;;;;12.20;96684.00;;;;5127919;27;20241;-66
2023/04/18 00:58:20;;;;;;;4.13;2.90;;;;;12.30;96688.00;;;;5125734;27;20212;-73
2023/04/18 01:01:10;;;;;;;3.70;3.30;;;;;12.20;96679.00;;;;5131188;27;20226;-69
2023/04/18 01:03:59;;;;;;;4.50;3.00;;;;;12.10;96679.00;;;;5127386;27;20195;-70
2023/04/18 01:06:48;;;;;;;3.27;2.97;;;;;11.90;96671.00;;;;5130457;27;20198;-72
2023/04/18 01:09:37;;;;;;;3.33;3.03;;;;;12.20;96673.00;;;;5124341;27;20673;-68
2023/04/18 01:12:28;;;;;;;3.30;3.00;;;;;12.40;96674.00;;;;5130101;27;20261;-68
2023/04/18 01:15:17;;;;;;;3.33;2.63;;;;;12.20;96665.00;;;;5125513;27;20217;-69
2023/04/18 01:18:06;;;;;;;3.27;2.57;;;;;12.20;96671.00;;;;5128083;27;20237;-67
2023/04/18 01:20:55;;;;;;;4.80;2.90;;;;;12.20;96665.00;;;;5127602;27;20205;-69
2023/04/18 01:23:44;;;;;;;3.20;2.90;;;;;12.00;96658.00;;;;5126590;27;20194;-67
2023/04/18 01:26:35;;;;;;;2.87;2.57;;;;;12.00;96664.00;;;;5126247;27;20634;-69
2023/04/18 01:29:24;;;;;;;3.00;2.67;;;;;11.80;96661.00;;;;5130263;27;20263;-68
2023/04/18 01:32:13;;;;;;;2.57;2.30;;;;;11.50;96666.00;;;;5129149;27;20232;-69
2023/04/18 01:35:02;;;;;;;3.80;2.97;;;;;11.60;96659.00;;;;5122110;27;20266;-69
2023/04/18 01:37:51;;;;;;;2.77;2.20;;;;;11.50;96663.00;;;;5127646;27;20204;-69
2023/04/18 01:40:40;;;;;;;2.87;2.57;;;;;11.50;96660.00;;;;5127949;27;20251;-68
2023/04/18 01:43:31;;;;;;;2.30;2.10;;;;;11.40;96654.00;;;;5129863;27;20224;-69
2023/04/18 01:46:20;;;;;;;3.10;2.50;;;;;11.20;96660.00;;;;5128698;27;20250;-69
2023/04/18 01:49:09;;;;;;;3.43;2.90;;;;;11.30;96657.00;;;;5124447;27;20262;-69
2023/04/18 01:51:58;;;;;;;2.63;2.23;;;;;11.20;96664.00;;;;5129665;27;20218;-69
2023/04/18 01:54:47;;;;;;;7.03;2.40;;;;;11.10;96665.00;;;;5127796;27;20228;-69
2023/04/18 01:57:36;;;;;;;3.10;2.37;;;;;11.00;96661.00;;;;5125481;27;20298;-68
2023/04/18 02:00:27;;;;;;;3.90;2.83;;;;;11.00;96658.00;;;;5125984;27;20231;-69
2023/04/18 02:03:16;;;;;;;2.60;2.33;;;;;11.10;96671.00;;;;5123295;27;20213;-69
2023/04/18 02:06:05;;;;;;;3.30;2.27;;;;;11.20;96672.00;;;;5125924;27;20281;-70
2023/04/18 02:08:54;;;;;;;4.20;2.73;;;;;11.20;96667.00;;;;5125397;27;20194;-70
2023/04/18 02:11:43;;;;;;;2.83;2.60;;;;;11.10;96656.00;;;;5127765;27;20222;-68
2023/04/18 02:14:33;;;;;;;3.07;2.70;;;;;11.10;96673.00;;;;5124637;27;20233;-70
2023/04/18 02:17:24;;;;;;;3.30;2.93;;;;;11.10;96671.00;;;;5126140;27;20205;-68
2023/04/18 02:20:14;;;;;;;2.63;2.10;;;;;10.90;96672.00;;;;5129659;27;20198;-69
2023/04/18 02:23:03;;;;;;;5.53;3.03;;;;;10.90;96668.00;;;;5125259;27;20209;-70
2023/04/18 02:25:53;;;;;;;2.83;2.20;;;;;11.00;96675.00;;;;5126016;27;20224;-70
2023/04/18 02:28:42;;;;;;;2.63;2.43;;;;;11.10;96670.00;;;;5126954;27;20202;-70
2023/04/18 02:31:31;;;;;;;3.07;2.37;;;;;11.20;96669.00;;;;5128674;27;20225;-70
2023/04/18 02:34:22;;;;;;;3.03;2.50;;;;;10.90;96654.00;;;;5124744;27;20206;-70
2023/04/18 02:37:11;;;;;;;3.77;2.63;;;;;11.20;96666.00;;;;5123704;27;20260;-70
2023/04/18 02:40:00;;;;;;;2.87;2.67;;;;;11.40;96658.00;;;;5120619;27;20205;-69
2023/04/18 02:42:49;;;;;;;2.47;2.00;;;;;11.30;96666.00;;;;5128183;27;20640;-70
2023/04/18 02:45:38;;;;;;;2.70;2.50;;;;;11.40;96666.00;;;;5126366;27;20607;-70
2023/04/18 02:48:27;;;;;;;5.47;2.47;;;;;11.20;96668.00;;;;5125846;27;20221;-70
2023/04/18 02:51:18;;;;;;;5.20;2.63;;;;;11.40;96666.00;;;;5121832;27;20603;-70
2023/04/18 02:54:07;;;;;;;2.30;2.10;;;;;11.40;96670.00;;;;5129256;27;20639;-70
2023/04/18 02:56:56;;;;;;;3.27;2.53;;;;;11.40;96672.00;;;;5124147;27;20646;-69
2023/04/18 02:59:45;;;;;;;3.27;2.60;;;;;11.50;96680.00;;;;5125233;27;20220;-70
2023/04/18 03:02:34;;;;;;;3.00;2.33;;;;;11.50;96675.00;;;;5122008;27;20225;-69
2023/04/18 03:05:23;;;;;;;4.00;2.97;;;;;11.60;96689.00;;;;5126195;27;20233;-70
2023/04/18 03:08:15;;;;;;;2.50;2.27;;;;;11.40;96675.00;;;;5121324;27;20304;-70
2023/04/18 03:11:04;;;;;;;3.37;2.77;;;;;11.60;96684.00;;;;5124413;27;20236;-70
2023/04/18 03:13:53;;;;;;;3.20;2.67;;;;;11.60;96679.00;;;;5122814;27;20198;-70
2023/04/18 03:16:42;;;;;;;3.13;2.37;;;;;11.70;96677.00;;;;5122164;27;20197;-69
2023/04/18 03:19:31;;;;;;;2.90;2.10;;;;;11.50;96677.00;;;;5125495;27;20609;-69
2023/04/18 03:22:20;;;;;;;2.67;1.87;;;;;11.70;96679.00;;;;5122887;27;20233;-69
2023/04/18 03:25:11;;;;;;;2.93;2.60;;;;;12.00;96679.00;;;;5124675;27;20250;-70
2023/04/18 03:28:00;;;;;;;2.27;2.07;;;;;12.00;96685.00;;;;5125366;27;20198;-70
2023/04/18 03:30:49;;;;;;;3.33;2.63;;;;;12.00;96677.00;;;;5122862;27;20214;-70
2023/04/18 03:33:41;;;;;;;2.67;1.80;;;;;12.10;96685.00;;;;5128251;27;20259;-69
2023/04/18 03:36:30;;;;;;;2.47;2.10;;;;;12.00;96678.00;;;;5127941;27;20198;-70
2023/04/18 03:39:19;;;;;;;3.40;1.93;;;;;12.10;96684.00;;;;5125799;27;20202;-70
2023/04/18 03:42:09;;;;;;;2.20;2.00;;;;;12.00;96676.00;;;;5124567;27;20229;-71
2023/04/18 03:44:58;;;;;;;2.80;1.80;;;;;12.00;96679.00;;;;5127176;27;20206;-69
2023/04/18 03:47:47;;;;;;;1.80;1.57;;;;;12.00;96676.00;;;;5122461;27;20201;-71
2023/04/18 03:50:36;;;;;;;1.57;1.43;;;;;12.10;96682.00;;;;5126099;27;20205;-68
2023/04/18 03:53:25;;;;;;;1.77;1.57;;;;;12.10;96684.00;;;;5125530;27;20198;-70
2023/04/18 03:56:14;;;;;;;1.70;1.60;;;;;12.20;96675.00;;;;5122313;27;20198;-70
2023/04/18 03:59:05;;;;;;;2.10;1.87;;;;;12.20;96694.00;;;;5127928;27;20295;-70
2023/04/18 04:01:54;;;;;;;1.40;1.17;;;;;12.30;96697.00;;;;5123653;27;20706;-71
2023/04/18 04:04:43;;;;;;;2.03;1.33;;;;;12.30;96699.00;;;;5122455;27;20701;-69
2023/04/18 04:07:32;;;;;;;1.30;1.20;;;;;12.30;96694.00;;;;5124190;27;20232;-70
2023/04/18 04:10:21;;;;;;;1.70;1.27;;;;;12.30;96699.00;;;;5129281;27;20217;-72
2023/04/18 04:13:10;;;;;;;1.07;0.97;;;;;12.10;96705.00;;;;5132091;27;20267;-71
2023/04/18 04:16:00;;;;;;;1.43;1.30;;;;;12.20;96707.00;;;;5122415;28;20669;-68
2023/04/18 04:18:49;;;;;;;2.30;1.60;;;;;12.40;96707.00;;;;5123746;28;20722;-70
2023/04/18 04:21:38;;;;;;;1.20;1.10;;;;;12.30;96713.00;;;;5122213;28;20241;-70
2023/04/18 04:24:28;;;;;;;1.83;1.10;;;;;12.30;96708.00;;;;5123059;28;20210;-70
2023/04/18 04:27:17;;;;;;;1.97;1.40;;;;;12.30;96723.00;;;;5125817;27;20221;-69
2023/04/18 04:30:08;;;;;;;2.50;1.70;;;;;12.40;96722.00;;;;5123313;27;20679;-70
2023/04/18 04:33:00;;;;;;;1.83;1.03;;;;;12.40;96722.00;;;;5130742;27;20218;-70
2023/04/18 04:35:49;;;;;;;1.27;1.07;;;;;12.30;96726.00;;;;5126165;27;20202;-70
2023/04/18 04:38:39;;;;;;;1.23;0.97;;;;;12.50;96725.00;;;;5127882;27;20202;-71
2023/04/18 04:41:28;;;;;;;0.90;0.80;;;;;12.60;96730.00;;;;5130951;27;20225;-71
2023/04/18 04:44:17;;;;;;;3.07;1.60;;;;;12.60;96729.00;;;;5128530;27;20221;-71
2023/04/18 04:47:06;;;;;;;1.00;0.90;;;;;12.60;96726.00;;;;5132883;27;20689;-71
2023/04/18 04:49:56;;;;;;;0.80;0.80;;;;;12.80;96736.00;;;;5126179;27;20575;-72
2023/04/18 04:52:45;;;;;;;0.70;0.60;;;;;12.60;96728.00;;;;5127705;27;20229;-72
2023/04/18 04:55:34;;;;;;;1.03;0.87;;;;;12.70;96732.00;;;;5122237;27;20521;-71
2023/04/18 04:58:23;;;;;;;1.03;0.73;;;;;12.90;96735.00;;;;5125413;27;20855;-71
2023/04/18 05:01:12;;;;;;;1.07;0.77;;;;;12.60;96732.00;;;;5126452;27;20720;-72
2023/04/18 05:04:01;;;;;;;1.60;0.80;;;;;12.90;96728.00;;;;5126073;27;20201;-72
2023/04/18 05:06:52;;;;;;;0.67;0.63;;;;;13.00;96730.00;;;;5133189;27;20612;-72
2023/04/18 05:09:41;;;;;;;1.07;0.77;;;;;13.10;96739.00;;;;5121621;27;20677;-70
2023/04/18 05:12:30;;;;;;;0.83;0.80;;;;;13.00;96734.00;;;;5129624;27;20308;-71
2023/04/18 05:15:20;;;;;;;0.57;0.57;;;;;12.80;96729.00;;;;5125639;27;20216;-70
2023/04/18 05:18:09;;;;;;;0.70;0.70;;;;;12.90;96743.00;;;;5129380;27;20213;-68
2023/04/18 05:20:58;;;;;;;1.00;0.93;;;;;12.90;96727.00;;;;5129610;27;20194;-68
2023/04/18 05:23:48;;;;;;;2.60;0.80;;;;;13.10;96729.00;;;;5127887;27;20676;-68
2023/04/18 05:26:38;;;;;;;1.20;1.10;;;;;13.10;96725.00;;;;5127470;27;20218;-70
2023/04/18 05:29:27;;;;;;;0.50;0.50;;;;;13.20;96744.00;;;;5125558;27;20232;-70
2023/04/18 05:32:17;;;;;;;0.80;0.80;;;;;13.30;96739.00;;;;5125862;27;20221;-68
2023/04/18 05:35:06;;;;;;;4.00;2.57;;;;;13.40;96740.00;;;;5126346;27;20202;-72
2023/04/18 05:37:55;;;;;;;1.20;0.87;;;;;13.30;96734.00;;;;5129921;27;20276;-72
2023/04/18 05:40:46;;;;;;;3.03;1.93;;;;;13.40;96736.00;;;;5127441;27;20236;-72
2023/04/18 05:43:34;;;;;;;1.10;1.00;;;;;13.50;96735.00;;;;5128802;27;20205;-71
2023/04/18 05:46:24;;;;;;;0.80;0.70;;;;;13.60;96736.00;;;;5134929;27;20217;-69
2023/04/18 05:49:13;;;;;;;1.03;0.70;;;;;13.70;96736.00;;;;5127412;27;20346;-70
2023/04/18 05:52:02;;;;;;;0.70;0.50;;;;;13.80;96735.00;;;;5129165;27;20222;-69
2023/04/18 05:54:51;;;;;;;0.87;0.80;;;;;13.90;96736.00;;;;5125872;27;20206;-71
2023/04/18 05:57:41;;;;;;;0.73;0.47;;;;;13.50;96734.00;;;;5128583;27;20608;-74
2023/04/18 06:00:30;;;;;;;0.80;0.80;;;;;13.60;96743.00;;;;5122777;27;20233;-67
2023/04/18 06:03:19;;;;;;;1.47;0.50;;;;;13.80;96751.00;;;;5125678;27;20304;-69
2023/04/18 06:06:09;;;;;;;0.70;0.50;;;;;13.50;96757.00;;;;5127046;27;20620;-71
2023/04/18 06:08:58;;;;;;;0.93;0.70;;;;;13.90;96751.00;;;;5124836;27;20684;-67
2023/04/18 06:11:47;;;;;;;0.50;0.40;;;;;14.20;96752.00;;;;5129513;27;20288;-66
2023/04/18 06:14:37;;;;;;;1.90;0.73;;;;;14.10;96756.00;;;;5122402;27;20302;-72
2023/04/18 06:17:26;;;;;;;0.77;0.60;;;;;14.20;96757.00;;;;5128118;27;20251;-72
2023/04/18 06:20:15;;;;;;;1.27;0.60;;;;;14.30;96758.00;;;;5124439;27;20201;-71
2023/04/18 06:23:04;;;;;;;0.33;0.33;;;;;14.10;96760.00;;;;5123035;27;20237;-71
2023/04/18 06:25:53;;;;;;;1.20;1.10;;;;;14.30;96764.00;;;;5125756;27;20194;-71
2023/04/18 06:28:42;;;;;;;3.03;1.33;;;;;14.40;96759.00;;;;5122975;27;20250;-71
2023/04/18 06:31:32;;;;;;;0.50;0.40;;;;;14.70;96754.00;;;;5128660;27;20286;-70
2023/04/18 06:34:21;;;;;;;0.70;0.70;;;;;14.60;96774.00;;;;5121448;27;20798;-70
2023/04/18 06:37:10;;;;;;;1.03;0.93;;;;;14.60;96764.00;;;;5123578;27;20198;-74
2023/04/18 06:39:59;;;;;;;1.70;0.70;;;;;14.80;96768.00;;;;5130198;27;20230;-69
2023/04/18 06:42:48;;;;;;;0.50;0.40;;;;;14.30;96765.00;;;;5128082;27;20708;-70
2023/04/18 06:45:37;;;;;;;0.70;0.70;;;;;14.30;96770.00;;;;5126041;27;20202;-68
2023/04/18 06:48:28;;;;;;;0.70;0.60;;;;;14.20;96779.00;;;;5123298;27;20217;-71
2023/04/18 06:51:17;;;;;;;0.40;0.40;;;;;14.60;96789.00;;;;5124998;27;20312;-70
2023/04/18 06:54:06;;;;;;;0.73;0.73;;;;;14.70;96784.00;;;;5129082;27;20198;-70
2023/04/18 06:56:55;;;;;;;0.40;0.30;;;;;14.30;96776.00;;;;5124369;27;20210;-67
2023/04/18 06:59:44;;;;;;;0.60;0.40;;;;;14.50;96771.00;;;;5126252;27;20233;-70
2023/04/18 07:02:33;;;;;;;2.00;0.50;;;;;14.80;96786.00;;;;5122017;27;20226;-68
2023/04/18 07:05:23;;;;;;;1.90;0.63;;;;;14.60;96776.00;;;;5126263;27;20201;-67
2023/04/18 07:08:12;;;;;;;0.50;0.33;;;;;14.60;96775.00;;;;5123593;27;20707;-69
2023/04/18 07:11:01;;;;;;;0.57;0.50;;;;;14.60;96782.00;;;;5128240;27;20243;-68
2023/04/18 07:13:50;;;;;;;0.40;0.40;;;;;14.90;96790.00;;;;5127642;27;20197;-71
2023/04/18 07:16:39;;;;;;;0.50;0.50;;;;;14.50;96763.00;;;;5122735;27;20201;-66
2023/04/18 07:19:28;;;;;;;0.40;0.40;;;;;15.10;96777.00;;;;5127662;27;20206;-69
2023/04/18 07:22:18;;;;;;;0.30;0.30;;;;;15.00;96777.00;;;;5121647;27;20276;-71
2023/04/18 07:25:08;;;;;;;0.80;0.50;;;;;15.20;96774.00;;;;5123275;27;20210;-69
2023/04/18 07:27:57;;;;;;;0.60;0.47;;;;;15.50;96781.00;;;;5124413;27;20241;-73
2023/04/18 07:30:47;;;;;;;1.07;0.67;;;;;15.50;96785.00;;;;5122449;27;20242;-74
2023/04/18 07:33:36;;;;;;;0.50;0.40;;;;;15.20;96767.00;;;;5120580;27;20201;-73
2023/04/18 07:36:25;;;;;;;0.90;0.50;;;;;15.60;96779.00;;;;5124829;27;20206;-72
2023/04/18 07:39:15;;;;;;;0.40;0.40;;;;;15.90;96792.00;;;;5126458;27;20197;-71
2023/04/18 07:42:05;;;;;;;0.40;0.40;;;;;15.90;96787.00;;;;5124898;27;20335;-70
2023/04/18 07:44:58;;;;;;;0.40;0.40;;;;;16.20;96788.00;;;;5125758;27;20692;-71
2023/04/18 07:47:47;;;;;;;0.70;0.43;;;;;15.90;96785.00;;;;5121158;27;20222;-73
2023/04/18 07:50:36;;;;;;;1.87;0.90;;;;;15.80;96794.00;;;;5127092;27;20543;-67
2023/04/18 07:53:24;;;;;;;0.60;0.50;;;;;16.40;96786.00;;;;5121611;27;20694;-70
2023/04/18 07:56:15;;;;;;;1.77;0.90;;;;;16.20;96793.00;;;;5119870;27;20213;-73
2023/04/18 07:59:04;;;;;;;0.50;0.50;;;;;16.20;96795.00;;;;5123728;27;20676;-73
2023/04/18 08:01:53;;;;;;;0.80;0.50;;;;;16.50;96791.00;;;;5123886;27;20222;-73
2023/04/18 08:04:42;;;;;;;0.40;0.40;;;;;16.50;96776.00;;;;5122767;27;20583;-72
2023/04/18 08:07:31;;;;;;;0.60;0.40;;;;;16.60;96783.00;;;;5126030;27;20194;-69
2023/04/18 08:10:20;;;;;;;0.90;0.30;;;;;16.90;96784.00;;;;5123092;28;20205;-70
2023/04/18 08:13:12;;;;;;;1.10;0.60;;;;;16.90;96783.00;;;;5128891;28;20278;-72
2023/04/18 08:16:02;;;;;;;0.30;0.30;;;;;17.50;96795.00;;;;5125540;28;20266;-69
2023/04/18 08:18:51;;;;;;;0.37;0.37;;;;;16.40;96790.00;;;;5124231;28;20194;-68
2023/04/18 08:21:40;;;;;;;0.50;0.50;;;;;17.30;96790.00;;;;5120065;28;20270;-70
2023/04/18 08:24:29;;;;;;;0.93;0.50;;;;;17.50;96801.00;;;;5124487;27;20217;-69
2023/04/18 08:27:18;;;;;;;0.80;0.40;;;;;16.40;96805.00;;;;5123245;27;20209;-74
2023/04/18 08:30:10;;;;;;;0.73;0.40;;;;;15.70;96802.00;;;;5119925;27;20201;-72
2023/04/18 08:33:00;;;;;;;0.50;0.40;;;;;16.00;96803.00;;;;5121989;28;20248;-71
2023/04/18 08:35:49;;;;;;;0.77;0.40;;;;;16.30;96812.00;;;;5119112;27;20199;-73
2023/04/18 08:38:38;;;;;;;0.40;0.33;;;;;15.90;96810.00;;;;5123082;27;20692;-73
2023/04/18 08:41:28;;;;;;;0.40;0.30;;;;;16.80;96818.00;;;;5127055;28;20217;-67
2023/04/18 08:44:17;;;;;;;0.40;0.40;;;;;16.50;96815.00;;;;5123071;28;20822;-70
2023/04/18 08:47:11;;;;;;;0.37;0.30;;;;;16.00;96818.00;;;;5123531;28;20210;-72
2023/04/18 08:50:02;;;;;;;0.40;0.30;;;;;16.90;96825.00;;;;5123029;28;20225;-70
2023/04/18 08:52:51;;;;;;;0.50;0.40;;;;;16.80;96828.00;;;;5125503;28;20221;-71
2023/04/18 08:55:40;;;;;;;0.70;0.33;;;;;16.40;96821.00;;;;5107543;28;20198;-74
2023/04/18 08:58:31;;;;;;;0.70;0.40;;;;;16.50;96827.00;;;;5120925;28;20263;-71
2023/04/18 09:01:20;;;;;;;0.20;0.20;;;;;16.60;96827.00;;;;5121995;28;20221;-69
2023/04/18 09:04:12;;;;;;;1.53;0.90;;;;;16.80;96830.00;;;;5119508;28;20244;-67
2023/04/18 09:07:02;;;;;;;5.13;1.37;;;;;16.60;96831.00;;;;5125309;28;20198;-69
2023/04/18 09:09:52;;;;;;;11.70;7.33;;;;;16.90;96821.00;;;;5119769;28;20709;-69
2023/04/18 09:12:48;;;;;;;5.03;3.50;;;;;17.20;96837.00;;;;5122647;28;20267;-69
2023/04/18 09:15:38;;;;;;;2.17;1.47;;;;;16.10;96802.00;;;;5126473;27;20202;-67
2023/04/18 09:18:27;;;;;;;4.00;2.50;;;;;16.80;96832.00;;;;5128012;27;20574;-71
2023/04/18 09:21:20;;;;;;;0.80;0.50;;;;;15.90;96831.00;;;;5125777;27;20271;-69
2023/04/18 09:24:22;;;;;;;0.30;0.30;;;;;16.80;96831.00;;;;5123826;27;20716;-69
2023/04/18 09:27:13;;;;;;;0.83;0.63;;;;;15.80;96829.00;;;;5127157;27;20614;-73
2023/04/18 09:30:02;;;;;;;1.60;1.47;;;;;16.60;96820.00;;;;5123966;27;20221;-68
2023/04/18 09:32:58;;;;;;;1.83;1.70;;;;;17.00;96822.00;;;;5129288;27;20246;-67
2023/04/18 09:35:47;;;;;;;0.77;0.70;;;;;16.90;96818.00;;;;5123970;27;20202;-69
2023/04/18 09:38:43;;;;;;;0.60;0.60;;;;;17.30;96825.00;;;;5127446;27;20530;-71
2023/04/18 09:41:31;;;;;;;0.30;0.30;;;;;17.20;96830.00;;;;5129350;27;20238;-71
2023/04/18 09:44:20;;;;;;;0.93;0.77;;;;;17.30;96810.00;;;;5127768;27;20194;-66
2023/04/18 09:47:09;;;;;;;0.20;0.20;;;;;17.40;96811.00;;;;5126600;27;20301;-70
2023/04/18 09:49:58;;;;;;;0.37;0.33;;;;;17.40;96812.00;;;;5119631;27;20743;-68
2023/04/18 09:52:48;;;;;;;1.17;0.40;;;;;17.80;96825.00;;;;5127895;27;20339;-71
2023/04/18 09:55:41;;;;;;;0.20;0.20;;;;;17.80;96820.00;;;;5102915;28;20205;-69
2023/04/18 09:58:32;;;;;;;0.20;0.20;;;;;18.30;96821.00;;;;5125813;27;20214;-70
2023/04/18 10:01:21;;;;;;;0.37;0.37;;;;;16.50;96814.00;;;;5122489;27;20329;-62
2023/04/18 10:04:12;;;;;;;0.20;0.17;;;;;16.90;96811.00;;;;5127289;27;20229;-65
2023/04/18 10:07:02;;;;;;;0.73;0.43;;;;;17.90;96806.00;;;;5129315;27;20198;-68
2023/04/18 10:09:52;;;;;;;0.40;0.40;;;;;18.20;96825.00;;;;5124431;27;20560;-66
2023/04/18 10:12:42;;;;;;;0.20;0.20;;;;;17.70;96832.00;;;;5128904;27;20270;-64
2023/04/18 10:15:31;;;;;;;0.30;0.30;;;;;18.00;96821.00;;;;5128874;27;20506;-67
2023/04/18 10:18:23;;;;;;;0.80;0.50;;;;;18.50;96828.00;;;;5126753;27;20228;-66
2023/04/18 10:21:12;;;;;;;0.30;0.30;;;;;17.50;96818.00;;;;5122096;27;20736;-62
2023/04/18 10:24:01;;;;;;;0.40;0.40;;;;;18.20;96828.00;;;;5127125;27;20749;-68
2023/04/18 10:26:50;;;;;;;1.23;0.93;;;;;18.40;96824.00;;;;5129134;27;20202;-65
2023/04/18 10:29:51;;;;;;;0.40;0.37;;;;;18.70;96832.00;;;;5123725;27;20365;-69
2023/04/18 10:32:40;;;;;;;0.20;0.20;;;;;18.70;96828.00;;;;5127812;27;20298;-65
2023/04/18 10:35:29;;;;;;;0.30;0.30;;;;;17.70;96809.00;;;;5123136;27;20198;-75
2023/04/18 10:38:18;;;;;;;0.40;0.40;;;;;18.00;96815.00;;;;5126894;27;20350;-65
2023/04/18 10:41:17;;;;;;;0.80;0.50;;;;;18.30;96826.00;;;;5128381;27;20197;-73
2023/04/18 10:44:18;;;;;;;0.50;0.30;;;;;18.50;96824.00;;;;5125367;27;20285;-66
2023/04/18 10:47:32;;;;;;;0.30;0.30;;;;;17.40;96805.00;;;;5123011;27;20982;-67
2023/04/18 10:50:21;;;;;;;0.47;0.40;;;;;18.80;96813.00;;;;5124842;27;20705;-67
2023/04/18 10:53:11;;;;;;;0.40;0.30;;;;;17.90;96807.00;;;;5126949;27;20692;-69
2023/04/18 10:56:00;;;;;;;0.93;0.50;;;;;18.70;96825.00;;;;5121214;27;20251;-70
2023/04/18 10:58:51;;;;;;;0.53;0.40;;;;;18.50;96815.00;;;;5127050;27;20724;-71
2023/04/18 11:01:44;;;;;;;0.30;0.20;;;;;18.50;96818.00;;;;5125351;27;20218;-69
2023/04/18 11:04:34;;;;;;;0.40;0.40;;;;;18.10;96828.00;;;;5123069;27;20247;-70
2023/04/18 11:07:33;;;;;;;0.30;0.20;;;;;18.50;96802.00;;;;5127699;27;20243;-70
2023/04/18 11:10:24;;;;;;;0.40;0.20;;;;;18.30;96809.00;;;;5125478;27;20586;-63
2023/04/18 11:13:13;;;;;;;0.80;0.50;;;;;17.90;96787.00;;;;5122722;27;20227;-70
2023/04/18 11:16:02;;;;;;;0.40;0.30;;;;;18.90;96768.00;;;;5128091;27;20201;-66
2023/04/18 11:18:51;;;;;;;0.20;0.20;;;;;18.90;96790.00;;;;5128690;27;20255;-67
2023/04/18 11:21:41;;;;;;;0.30;0.30;;;;;19.00;96797.00;;;;5122478;27;20218;-65
2023/04/18 11:24:30;;;;;;;0.53;0.50;;;;;19.40;96802.00;;;;5126159;27;20599;-67
2023/04/18 11:27:24;;;;;;;1.87;1.20;;;17.50;81.50;18.20;96790.00;;;;5125270;27;20577;-67
2023/04/18 11:30:15;;;;;;;2.53;1.43;;;17.10;83.10;18.90;96798.00;;;;5103028;28;20685;-69
2023/04/18 11:33:07;;;;;;;1.93;1.20;;;17.20;84.00;19.20;96797.00;;;;5105273;28;20227;-71
2023/04/18 11:35:58;;;;;;;3.73;2.17;;;17.30;83.20;19.20;96808.00;;;;5103289;28;20198;-74
2023/04/18 11:38:48;;;;;;;2.77;1.83;;;17.40;83.70;19.20;96809.00;;;;5121885;27;20197;-69
2023/04/18 11:41:40;;;;;;;2.80;1.67;;;17.30;82.70;18.70;96809.00;;;;5123903;27;20274;-73
2023/04/18 11:44:29;;;;;;;0.43;0.43;;;17.30;82.30;18.70;96805.00;;;;5100217;28;20196;-76
2023/04/18 11:47:25;;;;;;;0.63;0.43;;;17.30;81.70;18.50;96800.00;;;;5103772;28;20227;-72
2023/04/18 11:50:14;;;;;;;0.50;0.40;;;17.20;81.80;19.20;96790.00;;;;5100489;27;20226;-71
2023/04/18 11:53:03;;;;;;;0.37;0.33;;;17.30;82.80;19.70;96789.00;;;;5103319;28;20222;-72
2023/04/18 11:55:56;;;;;;;2.30;1.87;;;17.40;84.40;20.20;96798.00;;;;5105940;27;20205;-73
2023/04/18 11:58:45;;;;;;;1.73;0.60;;;17.70;84.70;19.40;96802.00;;;;5104302;27;20214;-72
2023/04/18 12:01:33;;;;;;;0.23;0.23;;;17.90;80.10;20.00;96800.00;;;;5105487;28;20226;-70
2023/04/18 12:04:22;;;;;;;0.30;0.30;;;17.90;81.50;19.90;96791.00;;;;5098999;28;20195;-74
2023/04/18 12:07:11;;;;;;;1.07;0.77;;;18.00;80.60;19.00;96796.00;;;;5099170;28;20202;-76
2023/04/18 12:09:59;;;;;;;0.30;0.30;;;17.90;80.70;19.40;96805.00;;;;5102768;28;20682;-69
2023/04/18 12:12:51;;;;;;;0.73;0.43;;;17.80;80.30;17.80;96784.00;;;;5095823;28;20677;-68
2023/04/18 12:15:44;;;;;;;0.60;0.40;;;17.70;78.30;19.50;96791.00;;;;5106532;28;20609;-68
2023/04/18 12:18:34;;;;;;;0.77;0.50;;;17.70;82.60;20.00;96789.00;;;;5103890;28;20544;-77
2023/04/18 12:21:25;;;;;;;0.40;0.40;;;17.90;79.70;19.90;96783.00;;;;5101075;28;20693;-73
2023/04/18 12:24:15;;;;;;;0.90;0.77;;;18.20;80.40;21.10;96793.00;;;;5101320;28;20264;-69
2023/04/18 12:27:04;;;;;;;0.40;0.30;;;18.50;81.30;20.30;96797.00;;;;5101636;28;20203;-68
2023/04/18 12:29:54;;;;;;;0.60;0.57;;;18.60;77.20;21.30;96796.00;;;;5099706;28;20300;-68
2023/04/18 12:32:43;;;;;;;0.37;0.30;;;18.70;77.90;20.10;96793.00;;;;5102026;28;20590;-70
2023/04/18 12:35:32;;;;;;;0.30;0.30;;;18.60;75.50;20.20;96800.00;;;;5106511;28;20190;-69
2023/04/18 12:38:22;;;;;;;0.50;0.20;;;18.60;76.10;20.10;96800.00;;;;5102130;28;20723;-72
2023/04/18 12:41:11;;;;;;;0.67;0.30;;;18.40;76.90;20.60;96794.00;;;;5102368;28;20307;-70
2023/04/18 12:44:00;;;;;;;0.90;0.33;;;18.50;77.60;20.00;96802.00;;;;5102625;28;20226;-73
2023/04/18 12:46:50;;;;;;;0.40;0.30;;;18.40;78.00;19.90;96808.00;;;;5102349;28;20384;-75
2023/04/18 12:49:39;;;;;;;0.33;0.33;;;18.40;77.80;20.10;96808.00;;;;5104057;28;20203;-71
2023/04/18 12:52:29;;;;;;;0.20;0.20;;;18.20;77.60;19.10;96805.00;;;;5105006;28;20223;-73
2023/04/18 12:55:17;;;;;;;0.30;0.30;;;18.00;77.60;18.90;96809.00;;;;5104999;28;20215;-71
2023/04/18 12:58:06;;;;;;;0.20;0.20;;;17.80;77.80;19.30;96815.00;;;;5104732;28;20220;-68
2023/04/18 13:00:56;;;;;;;0.40;0.30;;;17.60;78.20;19.30;96805.00;;;;5110745;28;20202;-69
2023/04/18 13:03:46;;;;;;;2.00;0.50;;;17.60;78.30;18.20;96817.00;;;;5101251;28;20213;-69
2023/04/18 13:06:38;;;;;;;0.30;0.30;;;17.40;78.20;18.40;96815.00;;;;5106882;28;20203;-75
2023/04/18 13:09:27;;;;;;;0.33;0.30;;;17.30;79.10;18.50;96817.00;;;;5110166;28;20202;-70
2023/04/18 13:12:16;;;;;;;0.30;0.30;;;17.10;80.20;19.00;96824.00;;;;5105817;28;20700;-71
2023/04/18 13:15:06;;;;;;;0.30;0.30;;;17.00;81.00;18.90;96821.00;;;;5109215;28;20251;-74
2023/04/18 13:17:56;;;;;;;1.60;0.40;;;17.00;81.40;19.10;96829.00;;;;5101900;28;20196;-68
2023/04/18 13:20:46;;;;;;;0.30;0.20;;;16.90;80.50;18.40;96818.00;;;;5106762;28;20210;-77
2023/04/18 13:23:35;;;;;;;0.30;0.30;;;17.00;80.20;18.60;96812.00;;;;5109975;28;20247;-70
2023/04/18 13:26:24;;;;;;;0.20;0.20;;;16.80;80.30;19.00;96806.00;;;;5107504;28;20298;-72
2023/04/18 13:29:13;;;;;;;0.20;0.20;;;16.90;81.40;19.70;96815.00;;;;5099953;28;20270;-70
2023/04/18 13:32:01;;;;;;;1.53;0.77;;;17.00;82.60;19.50;96807.00;;;;5110504;28;20226;-71
2023/04/18 13:34:50;;;;;;;1.67;0.33;;;17.20;82.30;19.70;96820.00;;;;5107190;28;20589;-72
2023/04/18 13:37:40;;;;;;;0.40;0.37;;;17.20;82.60;19.70;96821.00;;;;5106073;28;20666;-71
2023/04/18 13:40:29;;;;;;;1.07;0.30;;;17.30;81.80;19.70;96834.00;;;;5099851;28;20353;-72
2023/04/18 13:43:18;;;;;;;0.53;0.53;;;17.40;82.00;19.00;96823.00;;;;5103682;28;20684;-76
2023/04/18 13:46:06;;;;;;;0.77;0.40;;;17.30;80.50;18.50;96838.00;;;;5106440;28;20685;-71
2023/04/18 13:48:55;;;;;;;0.40;0.40;;;17.10;81.00;19.10;96835.00;;;;5108236;28;20187;-71
2023/04/18 13:51:44;;;;;;;0.20;0.20;;;17.10;81.10;19.20;96838.00;;;;5106501;28;20705;-71